sensor_id;sensor_type;location;lat;lon;timestamp;P1;durP1;ratioP1;P2;durP2;ratioP2
49193;SDS011;35029;50.804;12.866;2022-12-18T00:01:14;26.97;;;15.93;;
49193;SDS011;35029;50.804;12.866;2022-12-18T00:03:43;26.27;;;16.07;;
49193;SDS011;35029;50.804;12.866;2022-12-18T00:06:09;23.67;;;14.70;;
49193;SDS011;35029;50.804;12.866;2022-12-18T00:08:35;24.37;;;15.00;;
49193;SDS011;35029;50.804;12.866;2022-12-18T00:11:04;30.10;;;16.37;;
49193;SDS011;35029;50.804;12.866;2022-12-18T00:13:34;32.27;;;16.20;;
49193;SDS011;35029;50.804;12.866;2022-12-18T00:16:04;32.37;;;16.33;;
49193;SDS011;35029;50.804;12.866;2022-12-18T00:18:35;23.10;;;14.13;;
49193;SDS011;35029;50.804;12.866;2022-12-18T00:21:02;27.90;;;14.60;;
49193;SDS011;35029;50.804;12.866;2022-12-18T00:23:30;26.13;;;14.17;;
49193;SDS011;35029;50.804;12.866;2022-12-18T00:25:59;28.93;;;13.70;;
49193;SDS011;35029;50.804;12.866;2022-12-18T00:28:25;26.80;;;14.37;;
49193;SDS011;35029;50.804;12.866;2022-12-18T00:30:59;20.07;;;13.07;;
49193;SDS011;35029;50.804;12.866;2022-12-18T00:33:32;27.17;;;14.07;;
49193;SDS011;35029;50.804;12.866;2022-12-18T00:36:02;25.97;;;14.20;;
49193;SDS011;35029;50.804;12.866;2022-12-18T00:38:28;19.30;;;12.77;;
49193;SDS011;35029;50.804;12.866;2022-12-18T00:40:54;23.77;;;12.90;;
49193;SDS011;35029;50.804;12.866;2022-12-18T00:43:19;22.30;;;12.93;;
49193;SDS011;35029;50.804;12.866;2022-12-18T00:45:45;19.97;;;11.23;;
49193;SDS011;35029;50.804;12.866;2022-12-18T00:48:11;21.23;;;11.93;;
49193;SDS011;35029;50.804;12.866;2022-12-18T00:50:36;23.40;;;12.93;;
49193;SDS011;35029;50.804;12.866;2022-12-18T00:53:02;22.50;;;11.87;;
49193;SDS011;35029;50.804;12.866;2022-12-18T00:55:27;20.60;;;12.27;;
49193;SDS011;35029;50.804;12.866;2022-12-18T00:57:53;21.50;;;12.60;;
49193;SDS011;35029;50.804;12.866;2022-12-18T01:00:19;21.87;;;12.00;;
49193;SDS011;35029;50.804;12.866;2022-12-18T01:02:44;18.93;;;11.67;;
49193;SDS011;35029;50.804;12.866;2022-12-18T01:05:14;18.03;;;11.63;;
49193;SDS011;35029;50.804;12.866;2022-12-18T01:07:40;20.43;;;11.70;;
49193;SDS011;35029;50.804;12.866;2022-12-18T01:10:07;17.70;;;10.67;;
49193;SDS011;35029;50.804;12.866;2022-12-18T01:12:35;23.33;;;11.40;;
49193;SDS011;35029;50.804;12.866;2022-12-18T01:15:01;19.27;;;11.60;;
49193;SDS011;35029;50.804;12.866;2022-12-18T01:17:28;17.20;;;10.17;;
49193;SDS011;35029;50.804;12.866;2022-12-18T01:19:54;16.00;;;10.20;;
49193;SDS011;35029;50.804;12.866;2022-12-18T01:22:19;19.00;;;10.83;;
49193;SDS011;35029;50.804;12.866;2022-12-18T01:24:45;16.13;;;9.70;;
49193;SDS011;35029;50.804;12.866;2022-12-18T01:27:10;13.93;;;8.93;;
49193;SDS011;35029;50.804;12.866;2022-12-18T01:29:36;14.70;;;9.00;;
49193;SDS011;35029;50.804;12.866;2022-12-18T01:32:02;18.73;;;10.70;;
49193;SDS011;35029;50.804;12.866;2022-12-18T01:34:30;19.53;;;11.73;;
49193;SDS011;35029;50.804;12.866;2022-12-18T01:36:56;19.93;;;11.90;;
49193;SDS011;35029;50.804;12.866;2022-12-18T01:39:22;18.37;;;10.40;;
49193;SDS011;35029;50.804;12.866;2022-12-18T01:41:47;21.13;;;12.40;;
49193;SDS011;35029;50.804;12.866;2022-12-18T01:50:10;22.17;;;11.83;;
49193;SDS011;35029;50.804;12.866;2022-12-18T01:52:43;18.93;;;11.90;;
49193;SDS011;35029;50.804;12.866;2022-12-18T01:55:12;22.27;;;11.53;;
49193;SDS011;35029;50.804;12.866;2022-12-18T01:57:41;22.20;;;11.83;;
49193;SDS011;35029;50.804;12.866;2022-12-18T02:00:09;20.43;;;10.30;;
49193;SDS011;35029;50.804;12.866;2022-12-18T02:02:39;18.83;;;10.52;;
49193;SDS011;35029;50.804;12.866;2022-12-18T02:05:06;22.30;;;11.03;;
49193;SDS011;35029;50.804;12.866;2022-12-18T02:11:00;20.37;;;11.27;;
49193;SDS011;35029;50.804;12.866;2022-12-18T02:16:25;17.10;;;9.27;;
49193;SDS011;35029;50.804;12.866;2022-12-18T02:19:06;14.67;;;9.00;;
49193;SDS011;35029;50.804;12.866;2022-12-18T02:21:51;17.00;;;8.73;;
49193;SDS011;35029;50.804;12.866;2022-12-18T02:24:51;17.13;;;7.87;;
49193;SDS011;35029;50.804;12.866;2022-12-18T02:27:31;13.90;;;8.03;;
49193;SDS011;35029;50.804;12.866;2022-12-18T02:29:59;12.47;;;8.03;;
49193;SDS011;35029;50.804;12.866;2022-12-18T02:32:31;12.07;;;7.57;;
49193;SDS011;35029;50.804;12.866;2022-12-18T02:35:02;14.63;;;7.90;;
49193;SDS011;35029;50.804;12.866;2022-12-18T02:37:34;11.97;;;7.10;;
49193;SDS011;35029;50.804;12.866;2022-12-18T02:40:04;11.32;;;7.30;;
49193;SDS011;35029;50.804;12.866;2022-12-18T02:42:32;15.23;;;7.43;;
49193;SDS011;35029;50.804;12.866;2022-12-18T02:45:00;14.70;;;6.63;;
49193;SDS011;35029;50.804;12.866;2022-12-18T02:47:29;12.57;;;6.33;;
49193;SDS011;35029;50.804;12.866;2022-12-18T02:50:07;9.82;;;5.93;;
49193;SDS011;35029;50.804;12.866;2022-12-18T03:01:30;9.53;;;5.97;;
49193;SDS011;35029;50.804;12.866;2022-12-18T03:04:21;12.47;;;6.63;;
49193;SDS011;35029;50.804;12.866;2022-12-18T03:06:57;14.97;;;7.60;;
49193;SDS011;35029;50.804;12.866;2022-12-18T03:09:36;14.47;;;8.07;;
49193;SDS011;35029;50.804;12.866;2022-12-18T03:14:50;14.90;;;8.07;;
49193;SDS011;35029;50.804;12.866;2022-12-18T03:17:25;18.33;;;8.73;;
49193;SDS011;35029;50.804;12.866;2022-12-18T03:19:53;14.27;;;7.80;;
49193;SDS011;35029;50.804;12.866;2022-12-18T03:22:24;16.65;;;8.18;;
49193;SDS011;35029;50.804;12.866;2022-12-18T03:24:57;15.10;;;7.40;;
49193;SDS011;35029;50.804;12.866;2022-12-18T03:27:26;13.63;;;8.13;;
49193;SDS011;35029;50.804;12.866;2022-12-18T03:30:07;12.07;;;7.50;;
49193;SDS011;35029;50.804;12.866;2022-12-18T03:35:17;15.47;;;8.20;;
49193;SDS011;35029;50.804;12.866;2022-12-18T03:37:49;14.50;;;6.67;;
49193;SDS011;35029;50.804;12.866;2022-12-18T03:40:15;10.70;;;7.27;;
49193;SDS011;35029;50.804;12.866;2022-12-18T03:42:48;12.87;;;6.50;;
49193;SDS011;35029;50.804;12.866;2022-12-18T03:50:56;9.20;;;5.27;;
49193;SDS011;35029;50.804;12.866;2022-12-18T03:55:53;10.13;;;6.07;;
49193;SDS011;35029;50.804;12.866;2022-12-18T03:58:25;11.47;;;6.13;;
49193;SDS011;35029;50.804;12.866;2022-12-18T04:01:12;13.20;;;6.87;;
49193;SDS011;35029;50.804;12.866;2022-12-18T04:03:41;13.60;;;7.60;;
49193;SDS011;35029;50.804;12.866;2022-12-18T04:06:17;12.77;;;6.77;;
49193;SDS011;35029;50.804;12.866;2022-12-18T04:08:44;9.90;;;5.23;;
49193;SDS011;35029;50.804;12.866;2022-12-18T04:11:14;10.57;;;5.83;;
49193;SDS011;35029;50.804;12.866;2022-12-18T04:13:42;9.73;;;5.87;;
49193;SDS011;35029;50.804;12.866;2022-12-18T04:16:15;8.43;;;5.67;;
49193;SDS011;35029;50.804;12.866;2022-12-18T04:18:43;9.33;;;5.03;;
49193;SDS011;35029;50.804;12.866;2022-12-18T04:21:12;8.43;;;4.60;;
49193;SDS011;35029;50.804;12.866;2022-12-18T04:23:39;8.50;;;4.10;;
49193;SDS011;35029;50.804;12.866;2022-12-18T04:26:06;7.20;;;4.00;;
49193;SDS011;35029;50.804;12.866;2022-12-18T04:28:51;8.87;;;4.83;;
49193;SDS011;35029;50.804;12.866;2022-12-18T04:31:17;7.63;;;4.57;;
49193;SDS011;35029;50.804;12.866;2022-12-18T04:33:43;9.77;;;4.57;;
49193;SDS011;35029;50.804;12.866;2022-12-18T04:36:12;8.33;;;4.53;;
49193;SDS011;35029;50.804;12.866;2022-12-18T04:38:39;9.10;;;4.90;;
49193;SDS011;35029;50.804;12.866;2022-12-18T04:41:08;6.67;;;4.10;;
49193;SDS011;35029;50.804;12.866;2022-12-18T04:43:35;8.53;;;5.27;;
49193;SDS011;35029;50.804;12.866;2022-12-18T04:46:04;6.87;;;3.73;;
49193;SDS011;35029;50.804;12.866;2022-12-18T04:48:30;7.13;;;3.50;;
49193;SDS011;35029;50.804;12.866;2022-12-18T04:50:56;6.10;;;3.93;;
49193;SDS011;35029;50.804;12.866;2022-12-18T04:53:22;4.13;;;3.23;;
49193;SDS011;35029;50.804;12.866;2022-12-18T04:55:48;5.07;;;3.13;;
49193;SDS011;35029;50.804;12.866;2022-12-18T04:58:14;5.97;;;3.77;;
49193;SDS011;35029;50.804;12.866;2022-12-18T05:00:40;7.23;;;4.43;;
49193;SDS011;35029;50.804;12.866;2022-12-18T05:03:06;9.17;;;3.83;;
49193;SDS011;35029;50.804;12.866;2022-12-18T05:05:37;8.40;;;4.00;;
49193;SDS011;35029;50.804;12.866;2022-12-18T05:08:02;9.63;;;4.37;;
49193;SDS011;35029;50.804;12.866;2022-12-18T05:10:28;4.47;;;3.70;;
49193;SDS011;35029;50.804;12.866;2022-12-18T05:12:54;6.63;;;3.87;;
49193;SDS011;35029;50.804;12.866;2022-12-18T05:15:26;4.93;;;3.17;;
49193;SDS011;35029;50.804;12.866;2022-12-18T05:17:56;5.37;;;3.33;;
49193;SDS011;35029;50.804;12.866;2022-12-18T05:20:23;8.07;;;4.20;;
49193;SDS011;35029;50.804;12.866;2022-12-18T05:22:52;7.67;;;4.03;;
49193;SDS011;35029;50.804;12.866;2022-12-18T05:25:18;7.73;;;3.77;;
49193;SDS011;35029;50.804;12.866;2022-12-18T05:27:45;7.53;;;4.10;;
49193;SDS011;35029;50.804;12.866;2022-12-18T05:30:11;6.20;;;3.83;;
49193;SDS011;35029;50.804;12.866;2022-12-18T05:32:37;6.87;;;4.37;;
49193;SDS011;35029;50.804;12.866;2022-12-18T05:35:05;8.47;;;4.30;;
49193;SDS011;35029;50.804;12.866;2022-12-18T05:37:32;7.27;;;4.13;;
49193;SDS011;35029;50.804;12.866;2022-12-18T05:39:57;8.07;;;4.70;;
49193;SDS011;35029;50.804;12.866;2022-12-18T05:42:23;5.50;;;3.77;;
49193;SDS011;35029;50.804;12.866;2022-12-18T05:44:49;9.17;;;4.53;;
49193;SDS011;35029;50.804;12.866;2022-12-18T05:47:14;6.73;;;4.00;;
49193;SDS011;35029;50.804;12.866;2022-12-18T05:49:40;9.77;;;4.67;;
49193;SDS011;35029;50.804;12.866;2022-12-18T05:52:06;5.77;;;3.60;;
49193;SDS011;35029;50.804;12.866;2022-12-18T05:54:33;5.77;;;3.57;;
49193;SDS011;35029;50.804;12.866;2022-12-18T05:56:59;5.10;;;3.37;;
49193;SDS011;35029;50.804;12.866;2022-12-18T05:59:24;8.40;;;4.43;;
49193;SDS011;35029;50.804;12.866;2022-12-18T06:01:50;6.47;;;4.30;;
49193;SDS011;35029;50.804;12.866;2022-12-18T06:04:16;7.97;;;3.67;;
49193;SDS011;35029;50.804;12.866;2022-12-18T06:06:42;6.63;;;3.93;;
49193;SDS011;35029;50.804;12.866;2022-12-18T06:09:07;8.13;;;3.67;;
49193;SDS011;35029;50.804;12.866;2022-12-18T06:11:37;6.73;;;3.73;;
49193;SDS011;35029;50.804;12.866;2022-12-18T06:14:03;5.10;;;3.33;;
49193;SDS011;35029;50.804;12.866;2022-12-18T06:16:31;7.07;;;4.10;;
49193;SDS011;35029;50.804;12.866;2022-12-18T06:19:00;6.27;;;3.57;;
49193;SDS011;35029;50.804;12.866;2022-12-18T06:21:28;6.82;;;3.75;;
49193;SDS011;35029;50.804;12.866;2022-12-18T06:23:55;7.00;;;3.80;;
49193;SDS011;35029;50.804;12.866;2022-12-18T06:26:28;8.20;;;3.60;;
49193;SDS011;35029;50.804;12.866;2022-12-18T06:28:54;6.47;;;3.70;;
49193;SDS011;35029;50.804;12.866;2022-12-18T06:31:20;6.53;;;3.50;;
49193;SDS011;35029;50.804;12.866;2022-12-18T06:33:45;4.90;;;3.10;;
49193;SDS011;35029;50.804;12.866;2022-12-18T06:36:12;6.90;;;3.20;;
49193;SDS011;35029;50.804;12.866;2022-12-18T06:38:39;6.07;;;3.37;;
49193;SDS011;35029;50.804;12.866;2022-12-18T06:41:10;7.63;;;3.83;;
49193;SDS011;35029;50.804;12.866;2022-12-18T06:43:41;6.60;;;2.93;;
49193;SDS011;35029;50.804;12.866;2022-12-18T06:46:07;5.67;;;3.20;;
49193;SDS011;35029;50.804;12.866;2022-12-18T06:48:33;5.67;;;3.20;;
49193;SDS011;35029;50.804;12.866;2022-12-18T06:51:00;7.77;;;3.50;;
49193;SDS011;35029;50.804;12.866;2022-12-18T06:53:28;5.43;;;3.60;;
49193;SDS011;35029;50.804;12.866;2022-12-18T06:56:01;4.33;;;3.20;;
49193;SDS011;35029;50.804;12.866;2022-12-18T06:58:28;6.50;;;3.60;;
49193;SDS011;35029;50.804;12.866;2022-12-18T07:00:53;5.53;;;3.00;;
49193;SDS011;35029;50.804;12.866;2022-12-18T07:03:25;5.63;;;3.30;;
49193;SDS011;35029;50.804;12.866;2022-12-18T07:05:50;6.73;;;3.43;;
49193;SDS011;35029;50.804;12.866;2022-12-18T07:08:17;8.47;;;3.20;;
49193;SDS011;35029;50.804;12.866;2022-12-18T07:10:43;7.03;;;4.30;;
49193;SDS011;35029;50.804;12.866;2022-12-18T07:13:09;6.63;;;4.20;;
49193;SDS011;35029;50.804;12.866;2022-12-18T07:15:36;9.23;;;4.30;;
49193;SDS011;35029;50.804;12.866;2022-12-18T07:18:02;8.17;;;4.17;;
49193;SDS011;35029;50.804;12.866;2022-12-18T07:20:28;6.63;;;4.03;;
49193;SDS011;35029;50.804;12.866;2022-12-18T07:22:54;7.17;;;4.13;;
49193;SDS011;35029;50.804;12.866;2022-12-18T07:25:19;5.17;;;3.57;;
49193;SDS011;35029;50.804;12.866;2022-12-18T07:27:45;7.10;;;3.80;;
49193;SDS011;35029;50.804;12.866;2022-12-18T07:30:10;7.30;;;3.93;;
49193;SDS011;35029;50.804;12.866;2022-12-18T07:32:36;6.83;;;4.10;;
49193;SDS011;35029;50.804;12.866;2022-12-18T07:35:02;7.50;;;4.33;;
49193;SDS011;35029;50.804;12.866;2022-12-18T07:37:27;7.63;;;4.43;;
49193;SDS011;35029;50.804;12.866;2022-12-18T07:39:56;9.57;;;5.43;;
49193;SDS011;35029;50.804;12.866;2022-12-18T07:42:23;10.70;;;5.37;;
49193;SDS011;35029;50.804;12.866;2022-12-18T07:44:58;10.57;;;5.30;;
49193;SDS011;35029;50.804;12.866;2022-12-18T07:47:26;11.30;;;5.73;;
49193;SDS011;35029;50.804;12.866;2022-12-18T07:49:56;7.53;;;5.45;;
49193;SDS011;35029;50.804;12.866;2022-12-18T07:52:22;12.80;;;5.90;;
49193;SDS011;35029;50.804;12.866;2022-12-18T07:54:48;16.77;;;6.63;;
49193;SDS011;35029;50.804;12.866;2022-12-18T07:57:20;9.67;;;6.27;;
49193;SDS011;35029;50.804;12.866;2022-12-18T07:59:51;24.83;;;11.82;;
49193;SDS011;35029;50.804;12.866;2022-12-18T08:02:16;39.57;;;18.20;;
49193;SDS011;35029;50.804;12.866;2022-12-18T08:04:42;19.27;;;10.03;;
49193;SDS011;35029;50.804;12.866;2022-12-18T08:07:09;12.67;;;6.27;;
49193;SDS011;35029;50.804;12.866;2022-12-18T08:09:35;14.77;;;7.67;;
49193;SDS011;35029;50.804;12.866;2022-12-18T08:12:00;14.40;;;7.47;;
49193;SDS011;35029;50.804;12.866;2022-12-18T08:14:27;13.80;;;8.40;;
49193;SDS011;35029;50.804;12.866;2022-12-18T08:16:52;13.00;;;8.00;;
49193;SDS011;35029;50.804;12.866;2022-12-18T08:19:18;16.83;;;9.20;;
49193;SDS011;35029;50.804;12.866;2022-12-18T08:21:43;21.03;;;10.73;;
49193;SDS011;35029;50.804;12.866;2022-12-18T08:24:10;19.77;;;9.40;;
49193;SDS011;35029;50.804;12.866;2022-12-18T08:26:36;18.43;;;9.77;;
49193;SDS011;35029;50.804;12.866;2022-12-18T08:29:01;18.40;;;9.03;;
49193;SDS011;35029;50.804;12.866;2022-12-18T08:31:29;11.80;;;7.57;;
49193;SDS011;35029;50.804;12.866;2022-12-18T08:33:58;13.63;;;8.10;;
49193;SDS011;35029;50.804;12.866;2022-12-18T08:36:24;13.23;;;7.93;;
49193;SDS011;35029;50.804;12.866;2022-12-18T08:38:51;12.50;;;7.10;;
49193;SDS011;35029;50.804;12.866;2022-12-18T08:41:18;12.47;;;7.57;;
49193;SDS011;35029;50.804;12.866;2022-12-18T08:43:44;15.07;;;7.20;;
49193;SDS011;35029;50.804;12.866;2022-12-18T08:46:32;16.60;;;6.90;;
49193;SDS011;35029;50.804;12.866;2022-12-18T08:49:01;9.90;;;6.30;;
49193;SDS011;35029;50.804;12.866;2022-12-18T08:51:28;10.37;;;6.57;;
49193;SDS011;35029;50.804;12.866;2022-12-18T08:53:54;12.33;;;6.67;;
49193;SDS011;35029;50.804;12.866;2022-12-18T08:56:19;14.17;;;7.37;;
49193;SDS011;35029;50.804;12.866;2022-12-18T08:58:45;13.83;;;7.20;;
49193;SDS011;35029;50.804;12.866;2022-12-18T09:01:11;12.93;;;7.20;;
49193;SDS011;35029;50.804;12.866;2022-12-18T09:03:37;14.33;;;8.13;;
49193;SDS011;35029;50.804;12.866;2022-12-18T09:06:03;13.70;;;7.57;;
49193;SDS011;35029;50.804;12.866;2022-12-18T09:08:30;15.67;;;7.83;;
49193;SDS011;35029;50.804;12.866;2022-12-18T09:11:09;15.10;;;8.40;;
49193;SDS011;35029;50.804;12.866;2022-12-18T09:13:38;13.60;;;9.17;;
49193;SDS011;35029;50.804;12.866;2022-12-18T09:16:04;19.83;;;11.00;;
49193;SDS011;35029;50.804;12.866;2022-12-18T09:18:29;13.97;;;9.33;;
49193;SDS011;35029;50.804;12.866;2022-12-18T09:20:55;13.90;;;9.93;;
49193;SDS011;35029;50.804;12.866;2022-12-18T09:23:21;12.97;;;7.80;;
49193;SDS011;35029;50.804;12.866;2022-12-18T09:25:46;17.37;;;9.77;;
49193;SDS011;35029;50.804;12.866;2022-12-18T09:28:13;14.63;;;9.43;;
49193;SDS011;35029;50.804;12.866;2022-12-18T09:30:42;13.83;;;7.97;;
49193;SDS011;35029;50.804;12.866;2022-12-18T09:33:12;15.27;;;8.70;;
49193;SDS011;35029;50.804;12.866;2022-12-18T09:35:39;17.23;;;9.93;;
49193;SDS011;35029;50.804;12.866;2022-12-18T09:38:05;22.77;;;11.50;;
49193;SDS011;35029;50.804;12.866;2022-12-18T09:40:35;19.00;;;10.57;;
49193;SDS011;35029;50.804;12.866;2022-12-18T09:43:05;15.47;;;9.37;;
49193;SDS011;35029;50.804;12.866;2022-12-18T09:45:42;15.53;;;9.57;;
49193;SDS011;35029;50.804;12.866;2022-12-18T09:48:17;13.83;;;9.13;;
49193;SDS011;35029;50.804;12.866;2022-12-18T09:50:51;15.37;;;8.93;;
49193;SDS011;35029;50.804;12.866;2022-12-18T09:53:24;14.57;;;8.63;;
49193;SDS011;35029;50.804;12.866;2022-12-18T09:55:56;15.07;;;9.37;;
49193;SDS011;35029;50.804;12.866;2022-12-18T10:00:58;16.67;;;11.07;;
49193;SDS011;35029;50.804;12.866;2022-12-18T10:03:25;18.30;;;11.23;;
49193;SDS011;35029;50.804;12.866;2022-12-18T10:19:25;11.70;;;7.47;;
49193;SDS011;35029;50.804;12.866;2022-12-18T10:24:52;14.10;;;8.63;;
49193;SDS011;35029;50.804;12.866;2022-12-18T10:27:45;14.70;;;9.40;;
49193;SDS011;35029;50.804;12.866;2022-12-18T10:30:18;14.80;;;10.13;;
49193;SDS011;35029;50.804;12.866;2022-12-18T10:32:45;14.83;;;9.30;;
49193;SDS011;35029;50.804;12.866;2022-12-18T10:35:29;13.70;;;9.87;;
49193;SDS011;35029;50.804;12.866;2022-12-18T10:40:32;14.87;;;9.73;;
49193;SDS011;35029;50.804;12.866;2022-12-18T10:45:37;15.50;;;9.43;;
49193;SDS011;35029;50.804;12.866;2022-12-18T10:48:02;13.30;;;8.63;;
49193;SDS011;35029;50.804;12.866;2022-12-18T10:50:30;16.60;;;9.50;;
49193;SDS011;35029;50.804;12.866;2022-12-18T10:52:59;12.30;;;8.07;;
49193;SDS011;35029;50.804;12.866;2022-12-18T10:55:34;16.07;;;8.10;;
49193;SDS011;35029;50.804;12.866;2022-12-18T11:03:36;11.82;;;7.60;;
49193;SDS011;35029;50.804;12.866;2022-12-18T11:06:14;11.60;;;7.33;;
49193;SDS011;35029;50.804;12.866;2022-12-18T11:08:46;13.03;;;8.67;;
49193;SDS011;35029;50.804;12.866;2022-12-18T11:11:24;13.45;;;8.35;;
49193;SDS011;35029;50.804;12.866;2022-12-18T11:16:31;14.57;;;8.10;;
49193;SDS011;35029;50.804;12.866;2022-12-18T11:19:20;12.65;;;7.72;;
49193;SDS011;35029;50.804;12.866;2022-12-18T11:21:47;14.43;;;7.37;;
49193;SDS011;35029;50.804;12.866;2022-12-18T11:24:35;11.60;;;7.27;;
49193;SDS011;35029;50.804;12.866;2022-12-18T11:27:00;12.80;;;7.37;;
49193;SDS011;35029;50.804;12.866;2022-12-18T11:29:38;10.20;;;7.17;;
49193;SDS011;35029;50.804;12.866;2022-12-18T11:32:13;15.83;;;7.97;;
49193;SDS011;35029;50.804;12.866;2022-12-18T11:35:03;15.60;;;8.10;;
49193;SDS011;35029;50.804;12.866;2022-12-18T11:37:40;10.37;;;6.97;;
49193;SDS011;35029;50.804;12.866;2022-12-18T11:40:19;14.67;;;7.97;;
49193;SDS011;35029;50.804;12.866;2022-12-18T11:43:04;10.77;;;6.80;;
49193;SDS011;35029;50.804;12.866;2022-12-18T11:45:39;9.43;;;6.40;;
49193;SDS011;35029;50.804;12.866;2022-12-18T11:48:32;10.43;;;6.53;;
49193;SDS011;35029;50.804;12.866;2022-12-18T11:51:03;11.43;;;6.57;;
49193;SDS011;35029;50.804;12.866;2022-12-18T11:53:35;10.00;;;6.20;;
49193;SDS011;35029;50.804;12.866;2022-12-18T11:58:55;12.77;;;7.40;;
49193;SDS011;35029;50.804;12.866;2022-12-18T12:01:32;10.87;;;6.67;;
49193;SDS011;35029;50.804;12.866;2022-12-18T12:04:37;13.20;;;7.03;;
49193;SDS011;35029;50.804;12.866;2022-12-18T12:09:27;11.73;;;7.13;;
49193;SDS011;35029;50.804;12.866;2022-12-18T12:12:16;13.33;;;6.57;;
49193;SDS011;35029;50.804;12.866;2022-12-18T12:15:32;9.53;;;6.07;;
49193;SDS011;35029;50.804;12.866;2022-12-18T12:20:57;10.10;;;5.97;;
49193;SDS011;35029;50.804;12.866;2022-12-18T12:35:05;11.37;;;5.97;;
49193;SDS011;35029;50.804;12.866;2022-12-18T12:37:46;9.43;;;5.73;;
49193;SDS011;35029;50.804;12.866;2022-12-18T12:40:13;9.90;;;5.73;;
49193;SDS011;35029;50.804;12.866;2022-12-18T12:42:53;8.57;;;4.83;;
49193;SDS011;35029;50.804;12.866;2022-12-18T12:48:21;10.07;;;5.10;;
49193;SDS011;35029;50.804;12.866;2022-12-18T12:50:50;8.80;;;5.33;;
49193;SDS011;35029;50.804;12.866;2022-12-18T12:53:28;11.53;;;5.53;;
49193;SDS011;35029;50.804;12.866;2022-12-18T12:55:59;8.73;;;5.40;;
49193;SDS011;35029;50.804;12.866;2022-12-18T13:09:06;11.00;;;5.93;;
49193;SDS011;35029;50.804;12.866;2022-12-18T13:11:36;10.07;;;5.53;;
49193;SDS011;35029;50.804;12.866;2022-12-18T13:14:36;7.23;;;5.10;;
49193;SDS011;35029;50.804;12.866;2022-12-18T13:19:48;9.63;;;5.40;;
49193;SDS011;35029;50.804;12.866;2022-12-18T13:22:22;8.93;;;5.17;;
49193;SDS011;35029;50.804;12.866;2022-12-18T13:24:55;10.50;;;5.57;;
49193;SDS011;35029;50.804;12.866;2022-12-18T13:30:33;11.20;;;6.13;;
49193;SDS011;35029;50.804;12.866;2022-12-18T13:40:57;11.63;;;5.67;;
49193;SDS011;35029;50.804;12.866;2022-12-18T13:46:18;11.30;;;6.27;;
49193;SDS011;35029;50.804;12.866;2022-12-18T13:51:42;10.17;;;6.07;;
49193;SDS011;35029;50.804;12.866;2022-12-18T13:59:58;12.63;;;6.00;;
49193;SDS011;35029;50.804;12.866;2022-12-18T14:02:45;12.30;;;6.50;;
49193;SDS011;35029;50.804;12.866;2022-12-18T14:08:13;10.63;;;5.67;;
49193;SDS011;35029;50.804;12.866;2022-12-18T14:10:40;9.77;;;5.32;;
49193;SDS011;35029;50.804;12.866;2022-12-18T14:13:09;10.97;;;5.67;;
49193;SDS011;35029;50.804;12.866;2022-12-18T14:15:43;8.88;;;5.65;;
49193;SDS011;35029;50.804;12.866;2022-12-18T14:21:05;12.03;;;6.40;;
49193;SDS011;35029;50.804;12.866;2022-12-18T14:23:35;13.93;;;6.83;;
49193;SDS011;35029;50.804;12.866;2022-12-18T14:26:02;11.93;;;6.33;;
49193;SDS011;35029;50.804;12.866;2022-12-18T14:28:29;13.30;;;6.47;;
49193;SDS011;35029;50.804;12.866;2022-12-18T14:30:55;9.53;;;6.10;;
49193;SDS011;35029;50.804;12.866;2022-12-18T14:33:26;8.77;;;5.80;;
49193;SDS011;35029;50.804;12.866;2022-12-18T14:38:27;18.33;;;8.00;;
49193;SDS011;35029;50.804;12.866;2022-12-18T14:41:12;12.97;;;7.20;;
49193;SDS011;35029;50.804;12.866;2022-12-18T14:43:40;15.17;;;7.83;;
49193;SDS011;35029;50.804;12.866;2022-12-18T14:48:55;25.80;;;13.20;;
49193;SDS011;35029;50.804;12.866;2022-12-18T14:51:22;21.03;;;11.07;;
49193;SDS011;35029;50.804;12.866;2022-12-18T14:56:27;19.50;;;11.60;;
49193;SDS011;35029;50.804;12.866;2022-12-18T14:59:05;26.63;;;14.93;;
49193;SDS011;35029;50.804;12.866;2022-12-18T15:04:40;54.22;;;28.25;;
49193;SDS011;35029;50.804;12.866;2022-12-18T15:18:03;15.50;;;7.53;;
49193;SDS011;35029;50.804;12.866;2022-12-18T15:20:32;15.30;;;7.40;;
49193;SDS011;35029;50.804;12.866;2022-12-18T15:23:13;11.43;;;6.33;;
49193;SDS011;35029;50.804;12.866;2022-12-18T15:25:43;10.60;;;5.97;;
49193;SDS011;35029;50.804;12.866;2022-12-18T15:28:17;10.13;;;5.70;;
49193;SDS011;35029;50.804;12.866;2022-12-18T15:31:01;12.50;;;6.23;;
49193;SDS011;35029;50.804;12.866;2022-12-18T15:33:38;9.70;;;5.57;;
49193;SDS011;35029;50.804;12.866;2022-12-18T15:36:13;9.87;;;5.93;;
49193;SDS011;35029;50.804;12.866;2022-12-18T15:41:15;11.57;;;7.37;;
49193;SDS011;35029;50.804;12.866;2022-12-18T15:43:43;14.87;;;8.70;;
49193;SDS011;35029;50.804;12.866;2022-12-18T15:46:21;16.43;;;10.50;;
49193;SDS011;35029;50.804;12.866;2022-12-18T15:48:49;15.73;;;8.77;;
49193;SDS011;35029;50.804;12.866;2022-12-18T15:51:32;15.77;;;8.17;;
49193;SDS011;35029;50.804;12.866;2022-12-18T15:54:00;9.80;;;6.53;;
49193;SDS011;35029;50.804;12.866;2022-12-18T15:56:32;9.57;;;5.97;;
49193;SDS011;35029;50.804;12.866;2022-12-18T15:59:19;13.63;;;8.40;;
49193;SDS011;35029;50.804;12.866;2022-12-18T16:01:48;11.87;;;7.20;;
49193;SDS011;35029;50.804;12.866;2022-12-18T16:04:19;17.90;;;10.15;;
49193;SDS011;35029;50.804;12.866;2022-12-18T16:06:49;15.45;;;8.65;;
49193;SDS011;35029;50.804;12.866;2022-12-18T16:09:18;16.07;;;8.80;;
49193;SDS011;35029;50.804;12.866;2022-12-18T16:11:47;13.77;;;8.57;;
49193;SDS011;35029;50.804;12.866;2022-12-18T16:14:29;15.97;;;7.83;;
49193;SDS011;35029;50.804;12.866;2022-12-18T16:17:00;14.97;;;8.80;;
49193;SDS011;35029;50.804;12.866;2022-12-18T16:19:29;13.40;;;8.03;;
49193;SDS011;35029;50.804;12.866;2022-12-18T16:21:56;14.70;;;7.93;;
49193;SDS011;35029;50.804;12.866;2022-12-18T16:24:27;19.93;;;11.20;;
49193;SDS011;35029;50.804;12.866;2022-12-18T16:26:57;19.77;;;9.57;;
49193;SDS011;35029;50.804;12.866;2022-12-18T16:29:24;16.77;;;9.43;;
49193;SDS011;35029;50.804;12.866;2022-12-18T16:31:56;17.20;;;8.97;;
49193;SDS011;35029;50.804;12.866;2022-12-18T16:36:53;16.70;;;9.23;;
49193;SDS011;35029;50.804;12.866;2022-12-18T16:39:21;17.63;;;9.40;;
49193;SDS011;35029;50.804;12.866;2022-12-18T16:41:53;23.52;;;12.50;;
49193;SDS011;35029;50.804;12.866;2022-12-18T16:44:18;16.93;;;10.67;;
49193;SDS011;35029;50.804;12.866;2022-12-18T16:46:45;18.00;;;9.73;;
49193;SDS011;35029;50.804;12.866;2022-12-18T16:49:11;16.27;;;9.47;;
49193;SDS011;35029;50.804;12.866;2022-12-18T16:51:43;17.40;;;7.90;;
49193;SDS011;35029;50.804;12.866;2022-12-18T16:54:10;14.27;;;8.70;;
49193;SDS011;35029;50.804;12.866;2022-12-18T16:56:37;16.03;;;9.93;;
49193;SDS011;35029;50.804;12.866;2022-12-18T16:59:04;17.30;;;9.87;;
49193;SDS011;35029;50.804;12.866;2022-12-18T17:01:32;15.67;;;9.57;;
49193;SDS011;35029;50.804;12.866;2022-12-18T17:03:59;18.27;;;10.87;;
49193;SDS011;35029;50.804;12.866;2022-12-18T17:06:27;21.07;;;10.83;;
49193;SDS011;35029;50.804;12.866;2022-12-18T17:08:56;14.97;;;8.10;;
49193;SDS011;35029;50.804;12.866;2022-12-18T17:11:43;23.50;;;12.43;;
49193;SDS011;35029;50.804;12.866;2022-12-18T17:14:11;21.57;;;12.67;;
49193;SDS011;35029;50.804;12.866;2022-12-18T17:16:41;22.30;;;10.47;;
49193;SDS011;35029;50.804;12.866;2022-12-18T17:19:08;18.10;;;10.13;;